Time;durP1;ratioP1;P1;durP2;ratioP2;P2;SDS_P1;SDS_P2;PMS_P1;PMS_P2;Temp;Humidity;BMP_temperature;BMP_pressure;BME280_temperature;BME280_humidity;BME280_pressure;Samples;Min_cycle;Max_cycle;Signal;HPM_P1;HPM_P2
2022/07/18 00:02:19;;;;;;;5.65;3.45;;;;;;;;;;5030705;28;20025;-75
2022/07/18 00:04:45;;;;;;;6.68;3.65;;;;;;;;;;5028552;28;20150;-76
2022/07/18 00:07:11;;;;;;;6.95;4.18;;;;;;;;;;5026570;28;20479;-76
2022/07/18 00:09:38;;;;;;;7.47;3.78;;;;;;;;;;5027219;28;20026;-76
2022/07/18 00:12:05;;;;;;;3.65;3.28;;;;;;;;;;5029497;28;20159;-75
2022/07/18 00:14:31;;;;;;;4.80;3.60;;;;;;;;;;5029131;28;20407;-75
2022/07/18 00:16:58;;;;;;;5.80;3.55;;;;;;;;;;5027268;28;20101;-75
2022/07/18 00:19:24;;;;;;;8.82;4.05;;;;;;;;;;5027349;28;20423;-75
2022/07/18 00:21:51;;;;;;;7.65;3.60;;;;;;;;;;5029089;28;20022;-75
2022/07/18 00:24:17;;;;;;;4.03;3.22;;;;;;;;;;5024309;28;20913;-75
2022/07/18 00:26:43;;;;;;;6.85;3.65;;;;;;;;;;5028699;28;20138;-75
2022/07/18 00:29:09;;;;;;;6.53;3.22;;;;;;;;;;5028665;28;20387;-75
2022/07/18 00:31:35;;;;;;;4.90;3.45;;;;;;;;;;5029201;28;20068;-76
2022/07/18 00:34:01;;;;;;;7.75;3.65;;;;;;;;;;5027449;28;20029;-76
2022/07/18 00:36:28;;;;;;;6.10;3.72;;;;;;;;;;5029799;28;20022;-76
2022/07/18 00:38:54;;;;;;;6.68;4.25;;;;;;;;;;5027510;28;20021;-76
2022/07/18 00:41:20;;;;;;;7.10;3.75;;;;;;;;;;5026544;28;20040;-76
2022/07/18 00:43:46;;;;;;;5.57;3.30;;;;;;;;;;5027317;28;20026;-76
2022/07/18 00:46:12;;;;;;;6.50;3.92;;;;;;;;;;5028290;28;20364;-75
2022/07/18 00:48:39;;;;;;;8.30;3.30;;;;;;;;;;5026650;28;20018;-76
2022/07/18 00:51:05;;;;;;;4.80;3.42;;;;;;;;;;5028181;28;20109;-76
2022/07/18 00:53:31;;;;;;;9.13;3.15;;;;;;;;;;5027879;28;20072;-75
2022/07/18 00:55:58;;;;;;;6.68;3.60;;;;;;;;;;5025590;28;20291;-75
2022/07/18 00:58:24;;;;;;;4.30;3.40;;;;;;;;;;5025504;28;20021;-75
2022/07/18 01:03:35;;;;;;;4.47;3.33;;;;;;;;;;5028337;28;20408;-75
2022/07/18 01:06:01;;;;;;;7.72;3.63;;;;;;;;;;5025931;28;20036;-75
2022/07/18 01:08:27;;;;;;;6.57;3.08;;;;;;;;;;5023965;28;20055;-75
2022/07/18 01:10:54;;;;;;;8.02;3.90;;;;;;;;;;5021689;28;20057;-76
2022/07/18 01:13:20;;;;;;;6.35;4.18;;;;;;;;;;5025475;28;20130;-74
2022/07/18 01:15:47;;;;;;;5.95;3.63;;;;;;;;;;5026221;28;20044;-75
2022/07/18 01:18:13;;;;;;;6.53;3.72;;;;;;;;;;5024902;28;20056;-75
2022/07/18 01:20:39;;;;;;;3.88;3.10;;;;;;;;;;5026996;28;20479;-75
2022/07/18 01:23:05;;;;;;;5.90;3.60;;;;;;;;;;5025782;28;20034;-74
2022/07/18 01:25:32;;;;;;;6.28;3.30;;;;;;;;;;5028271;28;20385;-76
2022/07/18 01:27:58;;;;;;;5.82;3.45;;;;;;;;;;5026186;28;20102;-75
2022/07/18 01:30:25;;;;;;;4.85;3.67;;;;;;;;;;5025009;28;20052;-75
2022/07/18 01:32:57;;;;;;;5.60;3.13;;;;;;;;;;5027024;28;20025;-74
2022/07/18 01:35:24;;;;;;;5.95;3.50;;;;;;;;;;5025045;28;20115;-75
2022/07/18 01:37:54;;;;;;;5.97;3.50;;;;;;;;;;5028696;28;20124;-75
2022/07/18 01:40:20;;;;;;;8.05;3.70;;;;;;;;;;5024610;28;20083;-76
2022/07/18 01:42:46;;;;;;;5.35;3.55;;;;;;;;;;5029681;28;20037;-76
2022/07/18 01:45:12;;;;;;;7.57;3.38;;;;;;;;;;5029570;28;20017;-74
2022/07/18 01:47:38;;;;;;;4.45;3.35;;;;;;;;;;5028742;28;20036;-75
2022/07/18 01:50:05;;;;;;;6.32;3.58;;;;;;;;;;5028507;28;20029;-76
2022/07/18 01:52:31;;;;;;;8.25;3.47;;;;;;;;;;5028451;28;20036;-76
2022/07/18 01:54:57;;;;;;;4.20;3.42;;;;;;;;;;5025311;28;20099;-75
2022/07/18 01:57:23;;;;;;;4.47;3.38;;;;;;;;;;5025172;28;20033;-74
2022/07/18 01:59:50;;;;;;;4.97;3.58;;;;;;;;;;5025016;28;20545;-75
2022/07/18 02:02:16;;;;;;;7.15;3.42;;;;;;;;;;5025175;28;20033;-74
2022/07/18 02:05:00;;;;;;;5.13;3.40;;;;;;;;;;5022916;28;20029;-75
2022/07/18 02:07:27;;;;;;;4.03;3.40;;;;;;;;;;5026055;28;20025;-75
2022/07/18 02:09:54;;;;;;;4.85;3.13;;;;;;;;;;5026557;28;20029;-74
2022/07/18 02:12:20;;;;;;;5.80;3.30;;;;;;;;;;5016164;28;20030;-75
2022/07/18 02:14:46;;;;;;;4.60;3.20;;;;;;;;;;5026500;28;20104;-75
2022/07/18 02:17:12;;;;;;;6.85;3.70;;;;;;;;;;5027455;28;20030;-75
2022/07/18 02:19:38;;;;;;;5.70;3.50;;;;;;;;;;5023789;28;20364;-75
2022/07/18 02:22:04;;;;;;;3.83;3.40;;;;;;;;;;5026359;28;20029;-75
2022/07/18 02:24:30;;;;;;;6.35;3.47;;;;;;;;;;5018718;28;20075;-75
2022/07/18 02:26:56;;;;;;;4.53;3.95;;;;;;;;;;5025507;28;20017;-75
2022/07/18 02:29:22;;;;;;;3.85;3.22;;;;;;;;;;5026147;28;20025;-75
2022/07/18 02:31:48;;;;;;;5.93;3.60;;;;;;;;;;5024140;28;20492;-74
2022/07/18 02:34:14;;;;;;;4.85;3.10;;;;;;;;;;5023572;28;20052;-75
2022/07/18 02:36:41;;;;;;;8.40;3.47;;;;;;;;;;5025560;28;20029;-75
2022/07/18 02:39:08;;;;;;;6.55;3.20;;;;;;;;;;5025926;28;20025;-75
2022/07/18 02:41:34;;;;;;;6.15;3.20;;;;;;;;;;5023590;28;20371;-75
2022/07/18 02:44:00;;;;;;;5.18;3.22;;;;;;;;;;5020363;28;20025;-74
2022/07/18 02:46:26;;;;;;;5.40;3.40;;;;;;;;;;5023941;28;20053;-75
2022/07/18 02:48:52;;;;;;;6.70;3.15;;;;;;;;;;5025466;28;20114;-75
2022/07/18 02:51:19;;;;;;;4.90;4.22;;;;;;;;;;5024979;28;20072;-75
2022/07/18 02:53:45;;;;;;;4.40;3.50;;;;;;;;;;5013361;28;20021;-75
2022/07/18 02:56:11;;;;;;;4.28;3.47;;;;;;;;;;5020558;28;20092;-74
2022/07/18 02:58:37;;;;;;;4.20;3.42;;;;;;;;;;5023481;28;20157;-75
2022/07/18 03:01:03;;;;;;;4.45;3.20;;;;;;;;;;5018507;28;20525;-74
2022/07/18 03:03:29;;;;;;;4.07;3.25;;;;;;;;;;5023520;28;20072;-75
2022/07/18 03:05:56;;;;;;;5.43;3.72;;;;;;;;;;5020242;28;20038;-76
2022/07/18 03:08:22;;;;;;;9.63;3.45;;;;;;;;;;5023264;28;20036;-75
2022/07/18 03:10:48;;;;;;;6.00;3.40;;;;;;;;;;5019708;28;20029;-74
2022/07/18 03:13:14;;;;;;;5.20;3.20;;;;;;;;;;5027322;28;20021;-73
2022/07/18 03:15:40;;;;;;;10.77;4.18;;;;;;;;;;5027018;28;20136;-74
2022/07/18 03:18:06;;;;;;;6.32;3.97;;;;;;;;;;5027392;28;20519;-74
2022/07/18 03:20:33;;;;;;;4.30;3.83;;;;;;;;;;5025802;28;20383;-74
2022/07/18 03:22:59;;;;;;;7.25;3.70;;;;;;;;;;5025759;28;20060;-74
2022/07/18 03:25:25;;;;;;;10.13;3.75;;;;;;;;;;5026476;28;20033;-74
2022/07/18 03:27:51;;;;;;;7.03;3.75;;;;;;;;;;5027687;28;20060;-74
2022/07/18 03:30:17;;;;;;;6.28;3.20;;;;;;;;;;5026498;28;20045;-73
2022/07/18 03:32:43;;;;;;;4.00;3.40;;;;;;;;;;5026260;28;20487;-75
2022/07/18 03:35:09;;;;;;;6.18;4.05;;;;;;;;;;5025719;28;20044;-76
2022/07/18 03:37:36;;;;;;;4.43;3.13;;;;;;;;;;5026601;28;20064;-76
2022/07/18 03:40:02;;;;;;;6.13;3.47;;;;;;;;;;5025362;28;20064;-75
2022/07/18 03:42:28;;;;;;;7.47;3.47;;;;;;;;;;5022945;28;20398;-74
2022/07/18 03:44:54;;;;;;;5.15;3.75;;;;;;;;;;5025910;28;20033;-74
2022/07/18 03:47:20;;;;;;;5.25;3.67;;;;;;;;;;5027400;28;20033;-73
2022/07/18 03:49:46;;;;;;;4.53;3.35;;;;;;;;;;5027077;28;20037;-74
2022/07/18 03:52:12;;;;;;;6.05;3.55;;;;;;;;;;5021460;28;20037;-74
2022/07/18 03:54:38;;;;;;;6.72;3.50;;;;;;;;;;5019988;28;20053;-74
2022/07/18 03:57:04;;;;;;;5.35;3.70;;;;;;;;;;5024602;28;20037;-74
2022/07/18 03:59:30;;;;;;;6.65;3.33;;;;;;;;;;5026571;28;20242;-74
2022/07/18 04:01:56;;;;;;;4.13;3.40;;;;;;;;;;5025521;28;20022;-75
2022/07/18 04:04:22;;;;;;;5.85;3.67;;;;;;;;;;5029589;28;20491;-75
2022/07/18 04:06:48;;;;;;;7.05;4.78;;;;;;;;;;5027756;28;20036;-75
2022/07/18 04:09:14;;;;;;;5.70;3.65;;;;;;;;;;5029646;28;20032;-75
2022/07/18 04:11:41;;;;;;;4.28;3.25;;;;;;;;;;5027793;28;20029;-75
2022/07/18 04:14:07;;;;;;;4.53;3.70;;;;;;;;;;5029159;28;20502;-75
2022/07/18 04:16:33;;;;;;;6.15;3.88;;;;;;;;;;5028388;28;20117;-76
2022/07/18 04:18:59;;;;;;;6.45;3.38;;;;;;;;;;5025407;28;20021;-75
2022/07/18 04:21:25;;;;;;;8.50;4.10;;;;;;;;;;5025800;28;20391;-74
2022/07/18 04:23:51;;;;;;;4.32;3.78;;;;;;;;;;5029348;28;20071;-74
2022/07/18 04:26:17;;;;;;;4.70;3.80;;;;;;;;;;5024630;28;20026;-75
2022/07/18 04:28:43;;;;;;;6.13;3.67;;;;;;;;;;5029348;28;20107;-75
2022/07/18 04:31:09;;;;;;;5.85;4.28;;;;;;;;;;5023592;28;20230;-75
2022/07/18 04:33:35;;;;;;;6.38;3.65;;;;;;;;;;5028657;28;20029;-74
2022/07/18 04:36:01;;;;;;;5.57;4.28;;;;;;;;;;5025498;28;20066;-75
2022/07/18 04:38:33;;;;;;;4.00;3.45;;;;;;;;;;5028265;28;20026;-74
2022/07/18 04:40:59;;;;;;;7.15;3.63;;;;;;;;;;5026664;28;20172;-75
2022/07/18 04:43:25;;;;;;;5.25;3.50;;;;;;;;;;5030137;28;20029;-75
2022/07/18 04:45:52;;;;;;;4.75;3.40;;;;;;;;;;5026413;28;20073;-75
2022/07/18 04:48:18;;;;;;;3.97;3.47;;;;;;;;;;5028238;28;20400;-75
2022/07/18 04:50:44;;;;;;;4.25;3.15;;;;;;;;;;5024858;28;20029;-75
2022/07/18 04:53:10;;;;;;;4.32;3.58;;;;;;;;;;5025015;28;20056;-75
2022/07/18 04:55:36;;;;;;;5.10;3.85;;;;;;;;;;5028836;28;20502;-75
2022/07/18 04:58:03;;;;;;;6.70;3.63;;;;;;;;;;5027444;28;20033;-74
2022/07/18 05:00:29;;;;;;;5.95;3.30;;;;;;;;;;5026388;28;20021;-75
2022/07/18 05:02:56;;;;;;;4.65;3.40;;;;;;;;;;5026692;28;20072;-75
2022/07/18 05:05:23;;;;;;;7.65;3.90;;;;;;;;;;5026391;28;20033;-76
2022/07/18 05:07:49;;;;;;;8.23;3.72;;;;;;;;;;5027599;28;20057;-75
2022/07/18 05:10:20;;;;;;;5.63;3.53;;;;;;;;;;5027881;28;20471;-75
2022/07/18 05:12:47;;;;;;;5.25;3.85;;;;;;;;;;5026920;28;20056;-75
2022/07/18 05:15:17;;;;;;;4.10;3.45;;;;;;;;;;5025232;28;20021;-76
2022/07/18 05:17:44;;;;;;;4.00;3.63;;;;;;;;;;5027342;28;20033;-76
2022/07/18 05:20:11;;;;;;;8.48;3.95;;;;;;;;;;5023689;28;20030;-75
2022/07/18 05:22:38;;;;;;;6.72;4.10;;;;;;;;;;5029011;28;20029;-75
2022/07/18 05:25:05;;;;;;;7.57;3.90;;;;;;;;;;5023703;28;20018;-75
2022/07/18 05:27:31;;;;;;;5.72;3.90;;;;;;;;;;5025755;28;20049;-74
2022/07/18 05:30:01;;;;;;;7.60;3.85;;;;;;;;;;5025913;28;20104;-75
2022/07/18 05:32:27;;;;;;;4.55;3.70;;;;;;;;;;5021294;28;20471;-75
2022/07/18 05:34:54;;;;;;;5.15;3.80;;;;;;;;;;5023372;28;20021;-74
2022/07/18 05:37:20;;;;;;;5.68;3.40;;;;;;;;;;5021345;28;20056;-74
2022/07/18 05:39:46;;;;;;;5.97;3.72;;;;;;;;;;5024266;28;20037;-74
2022/07/18 05:42:12;;;;;;;4.07;3.63;;;;;;;;;;5024986;28;20432;-76
2022/07/18 05:44:38;;;;;;;6.68;3.58;;;;;;;;;;5026990;28;20021;-74
2022/07/18 05:47:04;;;;;;;5.32;3.67;;;;;;;;;;5026593;28;20487;-75
2022/07/18 05:49:30;;;;;;;8.57;4.63;;;;;;;;;;5027973;28;20069;-75
2022/07/18 05:51:56;;;;;;;5.60;3.58;;;;;;;;;;5027152;28;20017;-76
2022/07/18 05:54:25;;;;;;;4.88;3.92;;;;;;;;;;5026451;28;20380;-76
2022/07/18 05:56:52;;;;;;;7.82;4.65;;;;;;;;;;5027543;28;20025;-76
2022/07/18 05:59:18;;;;;;;7.95;3.65;;;;;;;;;;5025788;28;20104;-75
2022/07/18 06:01:45;;;;;;;5.93;3.88;;;;;;;;;;5024905;28;20022;-76
2022/07/18 06:04:11;;;;;;;4.68;3.80;;;;;;;;;;5020698;28;20030;-76
2022/07/18 06:06:37;;;;;;;4.70;4.03;;;;;;;;;;5025260;28;20021;-76
2022/07/18 06:09:04;;;;;;;4.93;3.80;;;;;;;;;;5027889;28;20084;-76
2022/07/18 06:11:30;;;;;;;5.85;3.47;;;;;;;;;;5026860;28;20022;-76
2022/07/18 06:13:56;;;;;;;4.82;3.88;;;;;;;;;;5027227;28;20075;-75
2022/07/18 06:16:23;;;;;;;4.97;3.50;;;;;;;;;;5025577;28;20036;-76
2022/07/18 06:18:49;;;;;;;6.68;3.83;;;;;;;;;;5024395;28;20029;-76
2022/07/18 06:21:15;;;;;;;3.55;3.25;;;;;;;;;;5025886;28;20022;-76
2022/07/18 06:23:41;;;;;;;5.30;3.70;;;;;;;;;;5025281;28;20033;-76
2022/07/18 06:26:07;;;;;;;9.00;4.45;;;;;;;;;;5027162;28;20030;-76
2022/07/18 06:28:33;;;;;;;4.32;3.67;;;;;;;;;;5027640;28;20369;-75
2022/07/18 06:30:59;;;;;;;8.55;3.30;;;;;;;;;;5020111;28;20052;-76
2022/07/18 06:33:25;;;;;;;4.53;3.83;;;;;;;;;;5024867;28;20104;-77
2022/07/18 06:35:52;;;;;;;5.57;3.40;;;;;;;;;;5027108;28;20047;-77
2022/07/18 06:38:18;;;;;;;4.78;4.32;;;;;;;;;;5028383;28;20025;-77
2022/07/18 06:40:44;;;;;;;5.03;3.42;;;;;;;;;;5027836;28;20036;-77
2022/07/18 06:43:10;;;;;;;4.88;3.78;;;;;;;;;;5026007;28;20041;-77
2022/07/18 06:45:36;;;;;;;5.53;3.55;;;;;;;;;;5026096;28;20034;-76
2022/07/18 06:48:03;;;;;;;5.60;3.65;;;;;;;;;;5028268;28;20037;-76
2022/07/18 06:50:29;;;;;;;4.22;3.15;;;;;;;;;;5028985;28;20083;-77
2022/07/18 06:52:55;;;;;;;4.50;3.10;;;;;;;;;;5028227;28;20029;-76
2022/07/18 06:55:21;;;;;;;5.45;3.13;;;;;;;;;;5027124;28;20495;-76
2022/07/18 06:57:47;;;;;;;6.05;3.08;;;;;;;;;;5029372;28;20322;-77
2022/07/18 07:00:14;;;;;;;5.60;3.47;;;;;;;;;;5027526;28;20036;-77
2022/07/18 07:02:41;;;;;;;5.88;3.00;;;;;;;;;;5029507;28;20022;-77
2022/07/18 07:05:08;;;;;;;4.38;3.35;;;;;;;;;;5027094;28;20060;-77
2022/07/18 07:07:34;;;;;;;4.72;3.20;;;;;;;;;;5026693;28;20467;-78
2022/07/18 07:10:00;;;;;;;5.82;3.47;;;;;;;;;;5027417;28;20029;-77
2022/07/18 07:12:26;;;;;;;6.63;2.90;;;;;;;;;;5024178;28;20052;-76
2022/07/18 07:14:52;;;;;;;4.15;3.10;;;;;;;;;;5026930;28;20561;-78
2022/07/18 07:17:19;;;;;;;5.07;3.17;;;;;;;;;;5023129;28;20020;-78
2022/07/18 07:19:45;;;;;;;5.63;3.15;;;;;;;;;;5025609;28;20112;-76
2022/07/18 07:22:11;;;;;;;4.95;3.30;;;;;;;;;;5025320;28;20514;-76
2022/07/18 07:24:38;;;;;;;4.68;3.22;;;;;;;;;;5026883;28;20025;-76
2022/07/18 07:27:04;;;;;;;4.22;3.13;;;;;;;;;;5020621;28;20067;-77
2022/07/18 07:29:30;;;;;;;6.13;3.60;;;;;;;;;;5026415;28;20034;-76
2022/07/18 07:31:59;;;;;;;4.82;3.38;;;;;;;;;;5025650;28;20049;-76
2022/07/18 07:34:25;;;;;;;4.53;3.10;;;;;;;;;;5025408;28;20035;-77
2022/07/18 07:36:54;;;;;;;3.85;2.80;;;;;;;;;;5026287;28;20014;-77
2022/07/18 07:39:20;;;;;;;5.28;3.40;;;;;;;;;;5023144;28;20025;-75
2022/07/18 07:41:46;;;;;;;4.35;3.00;;;;;;;;;;5023636;28;20052;-76
2022/07/18 07:44:12;;;;;;;6.75;3.75;;;;;;;;;;5023941;28;20029;-76
2022/07/18 07:46:38;;;;;;;4.68;2.92;;;;;;;;;;5026523;28;20487;-76
2022/07/18 07:49:04;;;;;;;3.67;3.10;;;;;;;;;;5024099;28;20032;-77
2022/07/18 07:51:30;;;;;;;3.28;2.97;;;;;;;;;;5027420;28;20024;-76
2022/07/18 07:53:57;;;;;;;5.22;3.20;;;;;;;;;;5024328;28;20495;-77
2022/07/18 07:56:23;;;;;;;4.60;2.97;;;;;;;;;;5029685;28;20036;-76
2022/07/18 07:58:49;;;;;;;4.18;3.03;;;;;;;;;;5027078;28;20079;-77
2022/07/18 08:01:17;;;;;;;6.63;2.92;;;;;;;;;;5030839;28;20068;-76
2022/07/18 08:03:46;;;;;;;3.83;2.88;;;;;;;;;;5029923;28;20033;-76
2022/07/18 08:06:12;;;;;;;4.75;2.95;;;;;;;;;;5030712;28;20487;-76
2022/07/18 08:08:38;;;;;;;8.00;3.10;;;;;;;;;;5031258;28;20057;-77
2022/07/18 08:11:04;;;;;;;3.22;2.85;;;;;;;;;;5031957;28;20095;-76
2022/07/18 08:13:30;;;;;;;6.25;3.10;;;;;;;;;;5032607;28;20021;-76
2022/07/18 08:15:59;;;;;;;3.95;3.03;;;;;;;;;;5032597;28;20026;-76
2022/07/18 08:18:25;;;;;;;5.20;2.72;;;;;;;;;;5030028;28;20489;-77
2022/07/18 08:20:52;;;;;;;5.53;3.40;;;;;;;;;;5029756;28;20395;-76
2022/07/18 08:23:21;;;;;;;3.47;2.67;;;;;;;;;;5030803;28;20411;-76
2022/07/18 08:25:47;;;;;;;5.35;3.08;;;;;;;;;;5032000;28;20360;-77
2022/07/18 08:28:14;;;;;;;4.35;3.20;;;;;;;;;;5030521;28;20426;-76
2022/07/18 08:30:40;;;;;;;5.05;2.80;;;;;;;;;;5030865;28;20047;-76
2022/07/18 08:33:08;;;;;;;7.45;3.20;;;;;;;;;;5028240;28;20037;-76
2022/07/18 08:35:35;;;;;;;4.13;2.92;;;;;;;;;;5033578;28;20022;-75
2022/07/18 08:38:02;;;;;;;5.70;3.10;;;;;;;;;;5030074;28;20422;-75
2022/07/18 08:40:28;;;;;;;7.35;2.97;;;;;;;;;;5032362;28;20105;-77
2022/07/18 08:42:55;;;;;;;6.28;2.92;;;;;;;;;;5026871;28;20025;-76
2022/07/18 08:45:22;;;;;;;5.05;3.45;;;;;;;;;;5030885;28;20033;-77
2022/07/18 08:47:48;;;;;;;7.95;3.40;;;;;;;;;;5028527;28;20456;-76
2022/07/18 08:50:15;;;;;;;9.82;4.28;;;;;;;;;;5031635;28;20029;-76
2022/07/18 08:52:41;;;;;;;3.25;2.92;;;;;;;;;;5029824;28;20022;-77
2022/07/18 08:55:08;;;;;;;7.95;2.95;;;;;;;;;;5030656;28;20498;-77
2022/07/18 08:57:34;;;;;;;4.57;2.80;;;;;;;;;;5026690;28;20032;-77
2022/07/18 09:00:00;;;;;;;6.95;3.15;;;;;;;;;;5029500;28;20108;-76
2022/07/18 09:02:27;;;;;;;5.65;3.40;;;;;;;;;;5029981;28;20091;-75
2022/07/18 09:04:53;;;;;;;4.68;2.90;;;;;;;;;;5027370;28;20032;-76
2022/07/18 09:07:27;;;;;;;5.28;3.00;;;;;;;;;;5029975;28;20108;-76
2022/07/18 09:09:58;;;;;;;8.02;3.30;;;;;;;;;;5027541;28;20030;-76
2022/07/18 09:12:25;;;;;;;4.18;2.83;;;;;;;;;;5028822;28;20022;-76
2022/07/18 09:14:51;;;;;;;5.20;3.03;;;;;;;;;;5029981;28;20025;-76
2022/07/18 09:17:18;;;;;;;12.10;3.60;;;;;;;;;;5027842;28;20017;-76
2022/07/18 09:20:03;;;;;;;2.92;2.63;;;;;;;;;;5026394;28;20028;-76
2022/07/18 09:22:33;;;;;;;5.90;3.15;;;;;;;;;;5029296;28;20029;-75
2022/07/18 09:25:13;;;;;;;3.60;2.78;;;;;;;;;;5030371;28;20083;-76
2022/07/18 09:27:47;;;;;;;6.88;3.17;;;;;;;;;;5029913;28;20064;-76
2022/07/18 09:30:15;;;;;;;;;;;;;;;;;;5031987;28;20061;-77
2022/07/18 09:32:42;;;;;;;3.75;3.20;;;;;;;;;;5029053;28;19905;-77
2022/07/18 09:35:09;;;;;;;5.20;2.80;;;;;;;;;;5028325;28;20083;-78
2022/07/18 09:37:36;;;;;;;3.80;2.72;;;;;;;;;;5025939;28;20025;-76
2022/07/18 09:40:25;;;;;;;3.95;3.17;;;;;;;;;;5027723;28;20062;-76
2022/07/18 09:42:55;;;;;;;4.32;2.83;;;;;;;;;;5014596;28;20045;-76
2022/07/18 09:45:25;;;;;;;3.40;2.67;;;;;;;;;;5027616;28;20334;-75
2022/07/18 09:47:58;;;;;;;4.25;2.80;;;;;;;;;;5030093;28;20431;-76
2022/07/18 09:50:26;;;;;;;3.77;3.00;;;;;;;;;;5027824;28;20025;-76
2022/07/18 09:52:57;;;;;;;4.03;2.67;;;;;;;;;;5026988;28;20119;-75
2022/07/18 09:55:23;;;;;;;3.92;3.00;;;;;;;;;;5024173;28;20496;-76
2022/07/18 09:58:01;;;;;;;3.15;2.85;;;;;;;;;;5027124;28;20083;-75
2022/07/18 10:00:28;;;;;;;3.45;2.90;;;;;;;;;;5028676;28;20025;-76
2022/07/18 10:02:55;;;;;;;3.20;2.80;;;;;;;;;;5028527;28;20045;-76
2022/07/18 10:05:21;;;;;;;3.90;2.63;;;;;;;;;;5029187;28;20022;-76
2022/07/18 10:07:47;;;;;;;2.65;2.45;;;;;;;;;;5026384;28;20025;-76
2022/07/18 10:10:16;;;;;;;5.07;3.03;;;;;;;;;;5028836;28;20044;-75
2022/07/18 10:12:43;;;;;;;5.20;2.67;;;;;;;;;;5027247;28;20022;-76
2022/07/18 10:15:09;;;;;;;4.72;2.47;;;;;;;;;;5028151;28;20033;-77
2022/07/18 10:17:35;;;;;;;4.65;3.03;;;;;;;;;;5028356;28;20395;-76
2022/07/18 10:20:05;;;;;;;3.90;2.70;;;;;;;;;;5026449;28;20040;-76
2022/07/18 10:22:35;;;;;;;6.60;2.70;;;;;;;;;;5026638;28;20041;-76
2022/07/18 10:25:05;;;;;;;4.63;3.03;;;;;;;;;;5029352;28;20041;-76
2022/07/18 10:27:51;;;;;;;4.07;2.60;;;;;;;;;;5026947;28;20021;-76
2022/07/18 10:30:19;;;;;;;8.13;2.75;;;;;;;;;;5027045;28;20054;-76
2022/07/18 10:32:46;;;;;;;5.72;2.60;;;;;;;;;;5026467;28;20025;-75
2022/07/18 10:35:15;;;;;;;4.80;2.60;;;;;;;;;;5026354;28;20026;-76
2022/07/18 10:37:41;;;;;;;4.25;2.88;;;;;;;;;;5025949;28;20028;-77
2022/07/18 10:40:24;;;;;;;4.63;2.55;;;;;;;;;;5024115;28;20256;-76
2022/07/18 10:43:09;;;;;;;2.65;2.38;;;;;;;;;;5024396;28;20032;-77
2022/07/18 10:45:35;;;;;;;;;;;;;;;;;;5025042;28;20048;-76
2022/07/18 10:48:21;;;;;;;2.60;2.40;;;;;;;;;;5027919;28;19948;-76
2022/07/18 10:51:02;;;;;;;5.13;2.83;;;;;;;;;;5025195;28;20025;-77
2022/07/18 10:53:47;;;;;;;15.23;3.65;;;;;;;;;;5027401;28;20025;-78
2022/07/18 10:56:13;;;;;;;;;;;;;;;;;;5023785;28;20036;-76
2022/07/18 10:58:40;;;;;;;6.97;2.90;;;;;;;;;;5026278;28;20337;-76
2022/07/18 11:01:10;;;;;;;4.55;2.75;;;;;;;;;;5023362;28;20120;-76
2022/07/18 11:03:36;;;;;;;3.78;2.80;;;;;;;;;;5023389;28;20038;-77
2022/07/18 11:06:02;;;;;;;3.83;2.63;;;;;;;;;;5027555;28;20029;-76
2022/07/18 11:08:31;;;;;;;4.90;2.60;;;;;;;;;;5027836;28;20022;-76
2022/07/18 11:11:03;;;;;;;3.33;2.47;;;;;;;;;;5025320;28;20523;-76
2022/07/18 11:13:37;;;;;;;3.67;2.40;;;;;;;;;;5027105;28;20391;-76
2022/07/18 11:16:19;;;;;;;2.95;2.58;;;;;;;;;;5027770;28;20084;-77
2022/07/18 11:18:46;;;;;;;3.13;2.50;;;;;;;;;;5025724;28;20022;-77
2022/07/18 11:21:15;;;;;;;6.22;2.92;;;;;;;;;;5024361;28;20647;-76
2022/07/18 11:23:48;;;;;;;7.25;2.90;;;;;;;;;;5022790;28;20025;-76
2022/07/18 11:26:18;;;;;;;4.68;2.80;;;;;;;;;;5025585;28;20033;-76
2022/07/18 11:28:44;;;;;;;3.00;2.70;;;;;;;;;;5027104;28;20029;-76
2022/07/18 11:31:11;;;;;;;5.70;2.42;;;;;;;;;;5025402;28;20503;-75
2022/07/18 11:33:40;;;;;;;3.15;2.80;;;;;;;;;;5028398;28;20041;-76
2022/07/18 11:36:07;;;;;;;2.75;2.40;;;;;;;;;;5016044;28;20049;-75
2022/07/18 11:38:35;;;;;;;4.65;2.30;;;;;;;;;;5029365;28;20231;-75
2022/07/18 11:41:02;;;;;;;3.65;2.53;;;;;;;;;;5029974;28;20032;-76
2022/07/18 11:43:28;;;;;;;6.25;2.75;;;;;;;;;;5027228;28;20034;-76
2022/07/18 11:46:01;;;;;;;4.40;2.92;;;;;;;;;;5029793;28;20059;-76
2022/07/18 11:48:27;;;;;;;6.28;2.40;;;;;;;;;;5029485;28;20025;-77
2022/07/18 11:50:53;;;;;;;2.83;2.50;;;;;;;;;;5022869;28;20041;-76
2022/07/18 11:53:19;;;;;;;3.25;2.40;;;;;;;;;;5029258;28;20368;-76
2022/07/18 11:55:45;;;;;;;2.50;2.30;;;;;;;;;;5028234;28;20414;-76
2022/07/18 11:58:13;;;;;;;4.93;2.70;;;;;;;;;;5029161;28;20056;-76
2022/07/18 12:00:39;;;;;;;3.88;2.28;;;;;;;;;;5026033;28;20036;-76
2022/07/18 12:03:17;;;;;;;3.83;2.55;;;;;;;;;;5027968;28;20060;-76
2022/07/18 12:05:48;;;;;;;3.42;3.08;;;;;;;;;;5029410;28;20543;-76
2022/07/18 12:08:30;;;;;;;3.00;2.50;;;;;;;;;;5029815;28;20371;-76
2022/07/18 12:11:07;;;;;;;3.25;2.60;;;;;;;;;;5031001;28;20104;-77
2022/07/18 12:13:42;;;;;;;4.45;2.60;;;;;;;;;;5031719;28;20025;-76
2022/07/18 12:16:08;;;;;;;3.08;2.50;;;;;;;;;;5031716;28;20021;-76
2022/07/18 12:18:34;;;;;;;3.92;2.25;;;;;;;;;;5030499;28;20033;-76
2022/07/18 12:21:10;;;;;;;4.90;2.80;;;;;;;;;;5032874;28;20434;-76
2022/07/18 12:23:39;;;;;;;4.68;2.65;;;;;;;;;;5028362;28;20535;-76
2022/07/18 12:26:05;;;;;;;3.13;2.67;;;;;;;;;;5031782;28;20087;-76
2022/07/18 12:28:31;;;;;;;3.00;2.55;;;;;;;;;;5028453;28;20495;-75
2022/07/18 12:30:57;;;;;;;5.05;2.97;;;;;;;;;;5025384;28;20045;-76
2022/07/18 12:33:23;;;;;;;2.97;2.67;;;;;;;;;;5027938;28;20044;-76
2022/07/18 12:35:56;;;;;;;3.28;2.60;;;;;;;;;;5031645;28;20028;-77
2022/07/18 12:38:23;;;;;;;3.28;2.45;;;;;;;;;;5031111;28;20033;-77
2022/07/18 12:40:51;;;;;;;3.83;2.75;;;;;;;;;;5031928;28;20551;-76
2022/07/18 12:43:24;;;;;;;4.30;3.05;;;;;;;;;;5026982;28;20135;-76
2022/07/18 12:45:50;;;;;;;3.25;2.90;;;;;;;;;;5027848;28;20037;-76
2022/07/18 12:48:16;;;;;;;3.45;2.90;;;;;;;;;;5032235;28;20025;-76
2022/07/18 12:50:44;;;;;;;4.47;2.50;;;;;;;;;;5030124;28;20732;-76
2022/07/18 12:53:12;;;;;;;3.90;2.75;;;;;;;;;;5026910;28;20112;-77
2022/07/18 12:55:39;;;;;;;3.00;2.70;;;;;;;;;;5029422;28;20040;-76
2022/07/18 12:58:06;;;;;;;4.05;2.67;;;;;;;;;;5028657;28;20052;-77
2022/07/18 13:00:33;;;;;;;3.08;2.70;;;;;;;;;;5024482;28;20029;-76
2022/07/18 13:03:00;;;;;;;3.42;2.60;;;;;;;;;;5028573;28;20107;-76
2022/07/18 13:05:26;;;;;;;3.00;2.67;;;;;;;;;;5031806;28;20083;-76
2022/07/18 13:07:53;;;;;;;4.30;2.90;;;;;;;;;;5031708;28;20034;-77
2022/07/18 13:10:20;;;;;;;4.80;3.58;;;;;;;;;;5028137;28;20025;-76
2022/07/18 13:12:47;;;;;;;2.97;2.67;;;;;;;;;;5028747;28;20037;-77
2022/07/18 13:15:14;;;;;;;4.97;2.70;;;;;;;;;;5033248;28;20017;-76
2022/07/18 13:17:40;;;;;;;4.78;2.70;;;;;;;;;;5024879;28;20383;-76
2022/07/18 13:20:06;;;;;;;2.85;2.53;;;;;;;;;;5030159;28;20069;-76
2022/07/18 13:22:37;;;;;;;4.82;2.90;;;;;;;;;;5029873;28;20033;-77
2022/07/18 13:25:07;;;;;;;3.78;2.55;;;;;;;;;;5029751;28;20025;-75
2022/07/18 13:27:33;;;;;;;3.88;2.70;;;;;;;;;;5031201;28;20021;-77
2022/07/18 13:30:00;;;;;;;4.63;3.05;;;;;;;;;;5029626;28;20451;-76
2022/07/18 13:32:27;;;;;;;4.43;2.97;;;;;;;;;;5029567;28;20025;-77
2022/07/18 13:34:53;;;;;;;7.03;3.20;;;;;;;;;;5031469;28;20080;-77
2022/07/18 13:37:19;;;;;;;5.90;2.85;;;;;;;;;;5027804;28;20642;-76
2022/07/18 13:39:45;;;;;;;3.25;2.67;;;;;;;;;;5025346;28;20876;-76
2022/07/18 13:42:11;;;;;;;3.92;2.92;;;;;;;;;;5028854;28;20029;-77
2022/07/18 13:44:37;;;;;;;5.18;2.80;;;;;;;;;;5027332;28;20033;-76
2022/07/18 13:47:03;;;;;;;6.28;3.30;;;;;;;;;;5030844;28;20501;-76
2022/07/18 13:49:29;;;;;;;3.05;2.70;;;;;;;;;;5029981;28;20126;-76
2022/07/18 13:51:56;;;;;;;7.50;3.30;;;;;;;;;;5030027;28;20112;-76
2022/07/18 13:54:22;;;;;;;6.32;2.80;;;;;;;;;;5030113;28;20076;-76
2022/07/18 13:56:48;;;;;;;3.20;2.90;;;;;;;;;;5028438;28;20021;-76
2022/07/18 13:59:14;;;;;;;5.25;3.10;;;;;;;;;;5026280;28;20118;-76
2022/07/18 14:01:41;;;;;;;4.38;2.85;;;;;;;;;;5026244;28;20075;-76
2022/07/18 14:04:08;;;;;;;6.25;3.25;;;;;;;;;;5029069;28;20044;-77
2022/07/18 14:06:37;;;;;;;10.63;3.80;;;;;;;;;;5028070;28;20040;-77
2022/07/18 14:09:04;;;;;;;5.20;2.80;;;;;;;;;;5028356;28;20498;-77
2022/07/18 14:11:32;;;;;;;4.85;3.20;;;;;;;;;;5023798;28;20033;-77
2022/07/18 14:13:58;;;;;;;4.13;2.63;;;;;;;;;;5028699;28;20029;-78
2022/07/18 14:16:24;;;;;;;5.15;3.13;;;;;;;;;;5026867;28;20025;-76
2022/07/18 14:18:50;;;;;;;3.67;3.03;;;;;;;;;;5027311;28;20030;-76
2022/07/18 14:21:16;;;;;;;5.20;3.65;;;;;;;;;;5027350;28;20056;-77
2022/07/18 14:23:42;;;;;;;3.33;2.80;;;;;;;;;;5028791;28;20042;-76
2022/07/18 14:26:09;;;;;;;4.90;3.38;;;;;;;;;;5026193;28;20033;-77
2022/07/18 14:28:35;;;;;;;3.83;3.08;;;;;;;;;;5028446;28;20442;-76
2022/07/18 14:31:01;;;;;;;4.72;2.60;;;;;;;;;;5023275;28;20320;-77
2022/07/18 14:33:27;;;;;;;7.65;3.00;;;;;;;;;;5028363;28;20379;-76
2022/07/18 14:35:53;;;;;;;6.93;3.40;;;;;;;;;;5028188;28;20109;-75
2022/07/18 14:38:19;;;;;;;4.15;2.92;;;;;;;;;;5028348;28;20208;-77
2022/07/18 14:40:45;;;;;;;4.38;3.22;;;;;;;;;;5027220;28;20086;-77
2022/07/18 14:43:11;;;;;;;7.25;3.38;;;;;;;;;;5028100;28;20048;-76
2022/07/18 14:45:37;;;;;;;5.47;3.58;;;;;;;;;;5027139;28;20059;-76
2022/07/18 14:48:03;;;;;;;3.42;3.10;;;;;;;;;;5030261;28;20030;-76